Time;durP1;ratioP1;P1;durP2;ratioP2;P2;SDS_P1;SDS_P2;PMS_P1;PMS_P2;Temp;Humidity;BMP_temperature;BMP_pressure;BME280_temperature;BME280_humidity;BME280_pressure;Samples;Min_cycle;Max_cycle;Signal;HPM_P1;HPM_P2
2022/03/21 00:01:21;;;;;;;16.13;14.10;;;5.40;1.00;;;;;;6241496;28;20354;-56
2022/03/21 00:04:24;;;;;;;15.27;13.80;;;5.50;1.00;;;;;;6275020;28;20257;-54
2022/03/21 00:07:27;;;;;;;17.57;15.20;;;5.30;1.00;;;;;;6261278;28;20240;-55
2022/03/21 00:10:31;;;;;;;20.57;15.53;;;5.20;1.00;;;;;;6250367;28;20293;-56
2022/03/21 00:13:35;;;;;;;17.63;14.90;;;5.20;1.00;;;;;;6262879;28;20317;-56
2022/03/21 00:16:40;;;;;;;16.10;14.40;;;5.20;1.00;;;;;;6256311;28;20733;-56
2022/03/21 00:19:43;;;;;;;17.47;13.77;;;5.30;1.00;;;;;;6237545;28;20776;-54
2022/03/21 00:22:45;;;;;;;22.90;13.87;;;5.20;1.00;;;;;;6236321;28;20258;-55
2022/03/21 00:25:48;;;;;;;17.33;15.50;;;5.20;1.00;;;;;;6244083;28;20281;-55
2022/03/21 00:28:51;;;;;;;18.63;15.27;;;5.20;1.00;;;;;;6261404;28;20540;-55
2022/03/21 00:31:55;;;;;;;16.23;14.17;;;5.60;1.00;;;;;;6261709;28;20710;-54
2022/03/21 00:34:57;;;;;;;15.70;14.20;;;5.20;1.00;;;;;;6261882;28;20234;-55
2022/03/21 00:38:00;;;;;;;18.97;14.13;;;5.10;1.00;;;;;;6285892;28;20225;-55
2022/03/21 00:41:04;;;;;;;14.57;13.17;;;5.10;1.00;;;;;;6269171;28;20238;-54
2022/03/21 00:44:07;;;;;;;15.97;14.30;;;5.20;1.00;;;;;;6259538;28;20710;-56
2022/03/21 00:47:11;;;;;;;18.27;14.37;;;5.00;1.00;;;;;;6236288;28;20377;-54
2022/03/21 00:50:17;;;;;;;16.17;14.10;;;5.00;1.00;;;;;;6236435;28;20481;-54
2022/03/21 00:53:20;;;;;;;18.60;15.00;;;5.10;1.00;;;;;;6235892;28;20325;-54
2022/03/21 00:56:23;;;;;;;17.30;15.00;;;5.00;1.00;;;;;;6237763;28;20268;-55
2022/03/21 00:59:26;;;;;;;17.40;14.40;;;5.00;1.00;;;;;;6236279;28;20312;-54
2022/03/21 01:02:30;;;;;;;16.20;14.33;;;5.30;1.00;;;;;;6254133;28;20667;-55
2022/03/21 01:14:17;;;;;;;16.97;14.67;;;4.70;1.00;;;;;;6256907;28;20234;-54
2022/03/21 01:17:39;;;;;;;16.03;14.43;;;4.80;1.00;;;;;;6253935;28;20230;-56
2022/03/21 01:20:59;;;;;;;15.83;14.07;;;4.70;1.00;;;;;;6250292;28;20242;-56
2022/03/21 01:24:03;;;;;;;15.93;14.40;;;4.80;1.00;;;;;;6260829;28;20246;-55
2022/03/21 01:27:06;;;;;;;22.33;15.63;;;4.40;1.00;;;;;;6236130;28;20493;-54
2022/03/21 01:30:11;;;;;;;18.20;14.17;;;4.70;1.00;;;;;;6235917;28;20835;-55
2022/03/21 01:33:15;;;;;;;15.43;13.67;;;4.60;1.00;;;;;;6240550;28;20262;-56
2022/03/21 01:36:18;;;;;;;16.30;14.10;;;4.80;1.00;;;;;;6277717;28;20316;-55
2022/03/21 01:39:21;;;;;;;20.03;14.53;;;4.50;1.00;;;;;;6281821;28;20742;-54
2022/03/21 01:42:23;;;;;;;15.97;14.37;;;4.70;1.00;;;;;;6246300;28;20255;-54
2022/03/21 01:45:28;;;;;;;16.87;13.73;;;4.50;1.00;;;;;;6260892;28;20242;-54
2022/03/21 01:48:32;;;;;;;16.17;14.40;;;4.40;1.00;;;;;;6260062;28;20812;-54
2022/03/21 01:51:37;;;;;;;16.77;14.93;;;4.40;1.00;;;;;;6259443;28;20244;-53
2022/03/21 01:58:01;;;;;;;16.07;14.27;;;4.50;1.00;;;;;;6234760;28;20227;-55
2022/03/21 02:01:04;;;;;;;15.87;14.23;;;4.50;1.00;;;;;;6239765;28;20225;-55
2022/03/21 02:04:10;;;;;;;15.57;13.40;;;4.50;1.00;;;;;;6272795;28;20230;-55
2022/03/21 02:07:13;;;;;;;16.23;14.13;;;4.20;1.00;;;;;;6257332;28;20270;-55
2022/03/21 02:10:16;;;;;;;15.57;13.97;;;4.30;1.00;;;;;;6259868;28;20321;-54
2022/03/21 02:13:19;;;;;;;14.93;13.37;;;4.40;1.00;;;;;;6258902;28;20324;-56
2022/03/21 02:16:23;;;;;;;15.67;13.97;;;4.30;1.00;;;;;;6254803;28;20238;-56
2022/03/21 02:19:30;;;;;;;18.00;14.70;;;4.10;1.00;;;;;;6234492;28;20235;-55
2022/03/21 02:22:39;;;;;;;15.60;14.13;;;4.20;1.00;;;;;;6234798;28;20699;-55
2022/03/21 02:25:45;;;;;;;15.63;14.03;;;4.40;1.00;;;;;;6234642;28;20242;-50
2022/03/21 02:28:49;;;;;;;15.80;13.70;;;4.30;1.00;;;;;;6235403;28;20485;-56
2022/03/21 02:31:53;;;;;;;16.50;13.33;;;4.40;1.00;;;;;;6234220;28;20727;-56
2022/03/21 02:34:57;;;;;;;18.63;15.40;;;4.20;1.00;;;;;;6260423;28;20506;-54
2022/03/21 02:38:01;;;;;;;18.33;13.57;;;4.30;1.00;;;;;;6257706;28;20324;-54
2022/03/21 02:41:05;;;;;;;16.90;14.57;;;4.00;1.00;;;;;;6258851;28;20737;-54
2022/03/21 02:44:08;;;;;;;15.63;14.10;;;4.00;1.00;;;;;;6251469;28;20724;-55
2022/03/21 02:47:11;;;;;;;16.20;14.50;;;4.00;1.00;;;;;;6233808;28;20344;-55
2022/03/21 02:50:17;;;;;;;21.47;13.80;;;4.00;1.00;;;;;;6233997;28;20634;-53
2022/03/21 02:53:22;;;;;;;17.77;15.30;;;4.10;1.00;;;;;;6233867;28;20757;-54
2022/03/21 02:56:26;;;;;;;16.63;14.50;;;3.90;1.00;;;;;;6232495;28;20239;-54
2022/03/21 02:59:29;;;;;;;17.27;14.83;;;3.90;1.00;;;;;;6232934;28;20542;-55
2022/03/21 03:02:32;;;;;;;19.97;15.37;;;3.70;1.00;;;;;;6245323;28;20500;-54
2022/03/21 03:05:35;;;;;;;23.50;15.60;;;3.60;1.00;;;;;;6266117;28;20773;-55
2022/03/21 03:08:39;;;;;;;18.17;16.20;;;3.60;1.00;;;;;;6257964;28;20234;-55
2022/03/21 03:11:43;;;;;;;18.50;15.53;;;3.50;1.00;;;;;;6255688;28;20246;-56
2022/03/21 03:14:46;;;;;;;22.37;16.70;;;3.50;1.00;;;;;;6247488;28;20245;-53
2022/03/21 03:17:49;;;;;;;18.07;15.80;;;3.50;1.00;;;;;;6245689;28;20320;-55
2022/03/21 03:20:53;;;;;;;18.53;16.10;;;3.60;1.00;;;;;;6257366;28;20753;-55
2022/03/21 03:23:59;;;;;;;19.93;16.57;;;3.40;1.00;;;;;;6233452;28;20234;-54
2022/03/21 03:27:03;;;;;;;19.63;16.83;;;3.40;1.00;;;;;;6235241;28;20314;-55
2022/03/21 03:30:06;;;;;;;22.33;16.73;;;3.40;1.00;;;;;;6246682;28;20376;-54
2022/03/21 03:33:09;;;;;;;19.57;16.63;;;3.30;1.00;;;;;;6257180;28;20320;-55
2022/03/21 03:36:12;;;;;;;21.33;16.73;;;3.30;1.00;;;;;;6265545;28;20251;-55
2022/03/21 03:39:15;;;;;;;19.57;16.43;;;3.50;1.00;;;;;;6284360;28;20244;-54
2022/03/21 03:42:20;;;;;;;25.10;17.53;;;3.50;1.00;;;;;;6261314;28;20656;-54
2022/03/21 03:45:23;;;;;;;22.03;17.70;;;3.30;1.00;;;;;;6258442;28;20607;-53
2022/03/21 03:48:26;;;;;;;20.07;16.93;;;3.00;1.00;;;;;;6237877;28;20244;-55
2022/03/21 03:51:30;;;;;;;18.83;16.83;;;3.30;1.00;;;;;;6238603;28;20284;-54
2022/03/21 03:54:33;;;;;;;22.77;17.77;;;3.20;1.00;;;;;;6238075;28;20296;-53
2022/03/21 03:57:37;;;;;;;22.77;17.17;;;3.30;1.00;;;;;;6238498;28;20481;-55
2022/03/21 04:00:39;;;;;;;22.10;17.27;;;3.10;1.00;;;;;;6237830;28;20629;-55
2022/03/21 04:03:48;;;;;;;23.40;17.53;;;3.00;1.00;;;;;;6269412;28;20641;-55
2022/03/21 04:06:51;;;;;;;23.57;18.00;;;2.60;1.00;;;;;;6238300;28;20296;-56
2022/03/21 04:09:53;;;;;;;24.07;18.07;;;2.80;1.00;;;;;;6246048;28;20361;-55
2022/03/21 04:12:57;;;;;;;22.10;17.27;;;3.20;1.00;;;;;;6261856;28;20234;-53
2022/03/21 04:16:00;;;;;;;25.13;18.03;;;3.10;1.00;;;;;;6243778;28;20258;-56
2022/03/21 04:19:03;;;;;;;23.90;18.23;;;2.90;1.00;;;;;;6237311;28;20234;-56
2022/03/21 04:22:06;;;;;;;26.90;18.23;;;2.90;1.00;;;;;;6236653;28;20377;-54
2022/03/21 04:25:10;;;;;;;27.23;18.90;;;2.90;1.00;;;;;;6237950;28;20316;-56
2022/03/21 04:28:15;;;;;;;25.97;18.53;;;2.90;1.00;;;;;;6236532;28;20326;-53
2022/03/21 04:31:18;;;;;;;25.10;18.40;;;2.90;1.00;;;;;;6232426;28;20674;-55
2022/03/21 04:34:21;;;;;;;23.33;18.17;;;3.00;1.00;;;;;;6242925;28;20234;-56
2022/03/21 04:37:24;;;;;;;27.53;19.70;;;2.80;1.00;;;;;;6262577;28;20303;-54
2022/03/21 04:40:26;;;;;;;26.43;19.13;;;2.70;1.00;;;;;;6257303;28;20283;-55
2022/03/21 04:43:30;;;;;;;25.90;18.00;;;2.80;1.00;;;;;;6259259;28;20325;-54
2022/03/21 04:46:33;;;;;;;25.83;19.93;;;2.80;1.00;;;;;;6259073;28;20305;-54
2022/03/21 04:49:37;;;;;;;26.83;19.23;;;2.70;1.00;;;;;;6254714;28;20372;-55
2022/03/21 04:52:40;;;;;;;29.27;19.43;;;2.90;1.00;;;;;;6257909;28;20327;-59
2022/03/21 04:55:43;;;;;;;25.03;19.87;;;2.90;1.00;;;;;;6259974;28;20276;-56
2022/03/21 04:58:47;;;;;;;23.33;19.33;;;2.90;1.00;;;;;;6251959;28;20845;-54
2022/03/21 05:01:51;;;;;;;23.20;19.17;;;2.80;1.00;;;;;;6258239;28;20256;-56
2022/03/21 05:04:54;;;;;;;26.90;19.20;;;2.70;1.00;;;;;;6266488;28;20325;-53
2022/03/21 05:07:57;;;;;;;24.97;19.20;;;2.80;1.00;;;;;;6258700;28;20705;-54
2022/03/21 05:11:00;;;;;;;25.93;19.73;;;2.50;1.00;;;;;;6259402;28;20257;-56
2022/03/21 05:14:04;;;;;;;27.17;18.83;;;2.70;1.00;;;;;;6257054;28;20305;-56
2022/03/21 05:17:09;;;;;;;23.60;19.57;;;2.70;1.00;;;;;;6258044;28;20283;-54
2022/03/21 05:20:16;;;;;;;27.10;19.37;;;2.60;1.00;;;;;;6261468;28;20649;-54
2022/03/21 05:36:42;;;;;;;27.67;18.97;;;2.40;1.00;;;;;;6255543;28;20235;-58
2022/03/21 05:43:02;;;;;;;24.10;18.37;;;2.60;1.00;;;;;;6243775;28;20250;-55
2022/03/21 05:46:06;;;;;;;25.60;18.30;;;2.50;1.00;;;;;;6251268;28;20821;-54
2022/03/21 05:49:09;;;;;;;26.33;18.67;;;2.70;1.00;;;;;;6258522;28;20237;-55
2022/03/21 05:52:12;;;;;;;26.03;18.37;;;2.60;1.00;;;;;;6262499;28;20303;-56
2022/03/21 05:55:15;;;;;;;20.13;17.83;;;2.50;1.00;;;;;;6259000;28;20372;-53
2022/03/21 05:58:18;;;;;;;22.93;17.67;;;2.80;1.00;;;;;;6251816;28;20706;-53
2022/03/21 06:01:22;;;;;;;27.87;18.40;;;2.70;1.00;;;;;;6262840;28;20433;-56
2022/03/21 06:04:26;;;;;;;21.97;17.07;;;2.80;1.00;;;;;;6254070;28;20234;-53
2022/03/21 06:07:28;;;;;;;19.70;17.17;;;2.80;1.00;;;;;;6257864;28;20733;-54
2022/03/21 06:10:31;;;;;;;24.17;17.00;;;3.20;1.00;;;;;;6253995;28;20257;-56
2022/03/21 06:13:35;;;;;;;23.73;17.30;;;3.10;1.00;;;;;;6257598;28;20240;-54
2022/03/21 06:16:39;;;;;;;26.43;18.60;;;3.20;1.00;;;;;;6256104;28;20407;-54
2022/03/21 06:19:42;;;;;;;25.73;18.87;;;3.30;1.00;;;;;;6253461;28;20291;-55
2022/03/21 06:22:45;;;;;;;23.10;18.00;;;2.90;1.00;;;;;;6255462;28;20430;-55
2022/03/21 06:25:48;;;;;;;25.20;19.07;;;3.40;1.00;;;;;;6257024;28;20369;-54
2022/03/21 06:28:50;;;;;;;24.90;19.40;;;3.50;1.00;;;;;;6256697;28;20344;-56
2022/03/21 06:31:54;;;;;;;29.40;19.63;;;3.30;1.00;;;;;;6251279;28;20246;-56
2022/03/21 06:34:57;;;;;;;28.07;18.93;;;3.40;1.00;;;;;;6254521;28;20238;-54
2022/03/21 06:38:00;;;;;;;24.47;19.27;;;3.60;1.00;;;;;;6257170;28;20241;-55
2022/03/21 06:41:04;;;;;;;31.07;19.17;;;3.60;1.00;;;;;;6253252;28;20386;-55
2022/03/21 06:44:07;;;;;;;21.27;16.90;;;3.50;1.00;;;;;;6256390;28;20317;-54
2022/03/21 06:47:11;;;;;;;26.73;18.67;;;4.20;1.00;;;;;;6248383;28;20237;-54
2022/03/21 06:50:14;;;;;;;24.67;18.73;;;4.40;1.00;;;;;;6258674;28;20249;-55
2022/03/21 06:53:17;;;;;;;23.37;18.07;;;4.50;1.00;;;;;;6245723;28;20635;-54
2022/03/21 06:56:20;;;;;;;29.70;18.50;;;4.40;1.00;;;;;;6251430;28;20720;-55
2022/03/21 06:59:23;;;;;;;24.90;18.17;;;5.50;1.00;;;;;;6256365;28;20226;-54
2022/03/21 07:02:28;;;;;;;23.00;18.23;;;5.40;1.00;;;;;;6260342;28;20328;-54
2022/03/21 07:05:32;;;;;;;26.13;17.63;;;5.50;1.00;;;;;;6262333;28;20654;-56
2022/03/21 07:08:34;;;;;;;23.40;17.43;;;5.40;1.00;;;;;;6255060;28;20256;-55
2022/03/21 07:11:37;;;;;;;24.57;17.37;;;5.40;1.00;;;;;;6262963;28;20668;-55
2022/03/21 07:14:44;;;;;;;25.93;17.17;;;6.00;1.00;;;;;;6262768;28;20658;-55
2022/03/21 07:17:51;;;;;;;18.83;15.63;;;5.80;1.00;;;;;;6257815;28;20234;-55
2022/03/21 07:20:55;;;;;;;18.73;15.80;;;5.90;1.00;;;;;;6255629;28;20709;-55
2022/03/21 07:23:58;;;;;;;18.83;14.90;;;6.10;1.00;;;;;;6259334;28;20249;-55
2022/03/21 07:27:00;;;;;;;20.47;15.40;;;6.30;1.00;;;;;;6262244;28;20335;-56
2022/03/21 07:30:05;;;;;;;19.97;14.57;;;6.90;1.00;;;;;;6261903;28;20766;-54
2022/03/21 07:33:09;;;;;;;18.43;14.40;;;6.80;1.00;;;;;;6254739;28;20285;-55
2022/03/21 07:36:12;;;;;;;18.47;14.83;;;6.60;1.00;;;;;;6258840;28;20322;-54
2022/03/21 07:39:14;;;;;;;24.67;13.97;;;6.60;1.00;;;;;;6260163;28;20391;-53
2022/03/21 07:42:19;;;;;;;17.57;14.13;;;6.60;1.00;;;;;;6263287;28;20372;-54
2022/03/21 07:48:44;;;;;;;20.23;15.00;;;6.80;1.00;;;;;;6259431;28;20244;-54
2022/03/21 07:51:47;;;;;;;16.10;13.90;;;6.70;1.00;;;;;;6260744;28;20457;-54
2022/03/21 07:54:53;;;;;;;17.17;14.63;;;6.70;1.00;;;;;;6255715;28;20229;-54
2022/03/21 07:57:56;;;;;;;30.90;15.27;;;6.80;1.00;;;;;;6253862;28;20242;-55
2022/03/21 08:00:59;;;;;;;21.20;14.70;;;6.70;1.00;;;;;;6258143;28;20372;-55
2022/03/21 08:04:04;;;;;;;19.37;13.63;;;6.80;1.00;;;;;;6254719;28;20444;-57
2022/03/21 08:07:07;;;;;;;17.40;14.57;;;6.90;1.00;;;;;;6255871;28;20238;-56
2022/03/21 08:10:11;;;;;;;16.03;13.77;;;6.90;1.00;;;;;;6262081;28;20234;-55
2022/03/21 08:13:16;;;;;;;15.90;13.37;;;7.10;1.00;;;;;;6259392;28;20233;-55
2022/03/21 08:16:20;;;;;;;17.33;14.17;;;7.20;1.00;;;;;;6254224;28;20276;-54
2022/03/21 08:19:24;;;;;;;13.73;12.30;;;7.20;1.00;;;;;;6256883;28;20317;-55
2022/03/21 08:22:27;;;;;;;14.70;13.13;;;7.40;1.00;;;;;;6257757;28;20241;-54
2022/03/21 08:25:30;;;;;;;19.47;13.33;;;7.60;1.00;;;;;;6255365;28;20234;-56
2022/03/21 08:28:33;;;;;;;13.93;12.57;;;7.80;1.00;;;;;;6258067;28;20722;-56
2022/03/21 08:31:36;;;;;;;14.33;12.50;;;7.90;1.00;;;;;;6257638;28;20230;-54
2022/03/21 08:34:40;;;;;;;17.40;12.23;;;8.10;1.00;;;;;;6261122;28;20234;-55
2022/03/21 08:37:43;;;;;;;16.37;12.17;;;8.20;1.00;;;;;;6267378;28;20234;-56
2022/03/21 08:40:45;;;;;;;17.63;12.80;;;8.40;1.00;;;;;;6258573;28;20269;-54
2022/03/21 08:43:48;;;;;;;16.47;11.73;;;8.50;1.00;;;;;;6261169;28;20587;-54
2022/03/21 08:46:51;;;;;;;14.13;12.10;;;8.60;1.00;;;;;;6268325;28;20566;-54
2022/03/21 08:49:55;;;;;;;13.50;12.20;;;8.70;1.00;;;;;;6263051;28;20413;-56
2022/03/21 08:52:58;;;;;;;15.00;10.80;;;8.90;1.00;;;;;;6252674;28;20262;-55
2022/03/21 08:56:01;;;;;;;11.97;10.63;;;9.00;1.00;;;;;;6253412;28;20315;-55
2022/03/21 08:59:04;;;;;;;12.47;11.17;;;9.20;1.00;;;;;;6250642;28;20418;-56
2022/03/21 09:02:08;;;;;;;18.27;11.60;;;9.30;1.00;;;;;;6258350;28;20584;-54
2022/03/21 09:05:14;;;;;;;17.47;11.10;;;9.20;1.00;;;;;;6250006;28;20234;-55
2022/03/21 09:08:17;;;;;;;11.73;10.53;;;9.30;1.00;;;;;;6261222;28;20230;-55
2022/03/21 09:11:20;;;;;;;16.70;10.70;;;9.30;1.00;;;;;;6254526;28;20264;-55
2022/03/21 09:14:22;;;;;;;14.93;10.20;;;9.40;1.00;;;;;;6258894;28;20499;-56
2022/03/21 09:17:26;;;;;;;10.70;9.60;;;9.40;1.00;;;;;;6262882;28;20269;-54
2022/03/21 09:20:30;;;;;;;10.37;9.50;;;9.40;1.00;;;;;;6234218;28;20268;-50
2022/03/21 09:23:33;;;;;;;10.77;9.47;;;9.50;1.00;;;;;;6252642;28;20683;-53
2022/03/21 09:26:36;;;;;;;11.50;10.37;;;9.60;1.00;;;;;;6257146;28;20238;-54
2022/03/21 09:29:44;;;;;;;11.53;10.33;;;9.80;1.00;;;;;;6249984;28;20235;-55
2022/03/21 09:32:47;;;;;;;12.13;9.30;;;9.70;1.00;;;;;;6256900;28;20914;-55
2022/03/21 09:35:51;;;;;;;13.07;10.60;;;9.70;1.00;;;;;;6259290;28;20780;-55
2022/03/21 09:38:54;;;;;;;11.60;10.53;;;9.80;1.00;;;;;;6255304;28;20229;-56
2022/03/21 09:41:57;;;;;;;12.23;10.57;;;9.80;1.00;;;;;;6256047;28;20506;-57
2022/03/21 09:45:00;;;;;;;11.53;10.37;;;9.90;1.00;;;;;;6253083;28;20307;-54
2022/03/21 09:48:11;;;;;;;11.43;10.23;;;10.00;1.00;;;;;;6247540;28;20235;-55
2022/03/21 09:51:20;;;;;;;11.60;10.60;;;10.10;1.00;;;;;;6252558;28;20718;-54
2022/03/21 09:54:27;;;;;;;19.67;10.93;;;10.20;1.00;;;;;;6255083;28;20623;-55
2022/03/21 09:57:31;;;;;;;11.47;10.37;;;10.40;1.00;;;;;;6256738;28;20399;-55
2022/03/21 10:00:34;;;;;;;12.23;10.50;;;10.50;1.00;;;;;;6260427;28;20258;-54
2022/03/21 10:03:38;;;;;;;13.60;9.77;;;10.50;1.00;;;;;;6259756;28;20241;-56
2022/03/21 10:06:44;;;;;;;15.60;10.77;;;10.60;1.00;;;;;;6248727;28;20241;-54
2022/03/21 10:10:06;;;;;;;10.63;9.83;;;10.60;1.00;;;;;;6257519;28;20757;-55
2022/03/21 10:13:11;;;;;;;11.47;10.50;;;10.60;1.00;;;;;;6257299;28;20234;-56
2022/03/21 10:16:15;;;;;;;11.43;10.37;;;10.70;1.00;;;;;;6251918;28;20722;-55
2022/03/21 10:19:18;;;;;;;11.03;9.93;;;10.90;1.00;;;;;;6252193;28;20331;-55
2022/03/21 10:22:37;;;;;;;12.77;10.30;;;10.90;1.00;;;;;;6255138;28;20226;-55
2022/03/21 10:25:40;;;;;;;12.43;11.27;;;11.10;1.00;;;;;;6261459;28;20675;-54
2022/03/21 10:28:42;;;;;;;11.20;10.17;;;11.20;1.00;;;;;;6254815;28;20325;-54
2022/03/21 10:31:48;;;;;;;18.07;10.23;;;11.30;1.00;;;;;;6255961;28;20324;-54
2022/03/21 10:35:00;;;;;;;12.87;9.70;;;11.20;1.00;;;;;;6243071;28;20639;-53
2022/03/21 10:38:05;;;;;;;11.73;9.83;;;11.40;1.00;;;;;;6252952;28;20255;-55
2022/03/21 10:41:09;;;;;;;10.90;9.93;;;11.60;1.00;;;;;;6261981;28;20242;-56
2022/03/21 10:44:12;;;;;;;16.03;9.93;;;11.60;1.00;;;;;;6251320;28;20315;-55
2022/03/21 10:47:14;;;;;;;10.57;9.57;;;11.80;1.00;;;;;;6251558;28;20229;-55
2022/03/21 10:50:27;;;;;;;10.60;9.70;;;12.00;1.00;;;;;;6256031;28;20233;-56
2022/03/21 10:53:38;;;;;;;10.50;9.50;;;12.10;1.00;;;;;;6249865;28;20317;-56
2022/03/21 10:56:41;;;;;;;11.20;9.93;;;12.40;1.00;;;;;;6252265;28;20461;-55
2022/03/21 10:59:44;;;;;;;11.03;9.93;;;12.40;1.00;;;;;;6252216;28;20241;-54
2022/03/21 11:02:52;;;;;;;12.07;9.73;;;12.30;1.00;;;;;;6252805;28;20678;-54
2022/03/21 11:05:55;;;;;;;12.43;9.70;;;12.40;1.00;;;;;;6258469;28;20292;-55
2022/03/21 11:09:01;;;;;;;12.47;9.83;;;12.50;1.00;;;;;;6251964;28;20318;-53
2022/03/21 11:12:05;;;;;;;11.33;10.33;;;12.70;1.00;;;;;;6251551;28;20755;-56
2022/03/21 11:15:09;;;;;;;11.37;10.00;;;12.80;1.00;;;;;;6255516;28;20238;-55
2022/03/21 11:18:12;;;;;;;10.27;9.20;;;12.80;1.00;;;;;;6252199;28;20392;-54
2022/03/21 11:21:15;;;;;;;11.20;10.03;;;12.80;1.00;;;;;;6250175;28;20303;-61
2022/03/21 11:24:19;;;;;;;10.83;9.73;;;12.80;1.00;;;;;;6255002;28;20336;-54
2022/03/21 11:27:38;;;;;;;10.80;9.80;;;12.80;1.00;;;;;;6252745;28;20610;-55
2022/03/21 11:30:57;;;;;;;10.07;9.27;;;12.80;1.00;;;;;;6256400;28;20398;-54
2022/03/21 11:34:13;;;;;;;10.47;9.57;;;13.00;1.00;;;;;;6255404;28;20796;-54
2022/03/21 11:37:26;;;;;;;9.73;9.00;;;13.10;1.00;;;;;;6255463;28;20321;-55
2022/03/21 11:40:33;;;;;;;10.77;9.77;;;12.90;1.00;;;;;;6259123;28;20361;-56
2022/03/21 11:43:36;;;;;;;11.73;10.73;;;12.90;1.00;;;;;;6257395;28;20317;-55
2022/03/21 11:46:38;;;;;;;13.70;10.00;;;13.10;1.00;;;;;;6253342;28;20240;-54
2022/03/21 11:49:45;;;;;;;10.07;9.13;;;13.10;1.00;;;;;;6256480;28;20241;-55
2022/03/21 11:53:07;;;;;;;10.43;9.43;;;13.20;1.00;;;;;;6255096;28;20727;-56
2022/03/21 11:56:16;;;;;;;9.90;8.93;;;13.20;1.00;;;;;;6253477;28;20736;-54
2022/03/21 11:59:56;;;;;;;10.33;9.00;;;13.30;1.00;;;;;;6255592;28;20260;-51
2022/03/21 12:02:59;;;;;;;10.47;9.40;;;13.30;1.00;;;;;;6250243;28;20313;-56
2022/03/21 12:06:24;;;;;;;10.43;8.93;;;13.40;1.00;;;;;;6259766;28;20338;-55
2022/03/21 12:09:39;;;;;;;12.63;8.20;;;13.40;1.00;;;;;;6249758;28;20620;-53
2022/03/21 12:12:56;;;;;;;9.47;8.67;;;13.50;1.00;;;;;;6252792;28;20242;-55
2022/03/21 12:16:00;;;;;;;8.57;7.70;;;13.50;1.00;;;;;;6251630;28;20658;-55
2022/03/21 12:19:04;;;;;;;10.40;8.27;;;13.70;1.00;;;;;;6258432;28;20230;-54
2022/03/21 12:22:39;;;;;;;10.67;8.90;;;13.90;1.00;;;;;;6251755;28;20230;-55
2022/03/21 12:25:48;;;;;;;9.00;8.40;;;13.90;1.00;;;;;;6252254;28;20283;-56
2022/03/21 12:32:27;;;;;;;10.10;9.23;;;14.10;1.00;;;;;;6259483;28;20601;-56
2022/03/21 12:36:06;;;;;;;10.00;8.60;;;14.20;1.00;;;;;;6256011;28;20230;-56
2022/03/21 12:39:18;;;;;;;9.37;8.67;;;14.20;1.00;;;;;;6205781;28;20707;-53
2022/03/21 12:42:22;;;;;;;10.43;9.30;;;14.40;1.00;;;;;;6203630;28;20312;-54
2022/03/21 12:45:29;;;;;;;10.57;9.57;;;14.50;1.00;;;;;;6257666;28;20717;-54
2022/03/21 12:48:34;;;;;;;10.13;9.23;;;14.60;1.00;;;;;;6258423;28;20249;-54
2022/03/21 12:51:37;;;;;;;9.80;8.77;;;14.60;1.00;;;;;;6258978;28;20321;-55
2022/03/21 12:54:57;;;;;;;10.33;9.43;;;14.50;1.00;;;;;;6256326;28;20261;-55
2022/03/21 12:58:02;;;;;;;10.33;9.43;;;14.50;1.00;;;;;;6258244;28;20238;-56
2022/03/21 13:01:06;;;;;;;14.03;10.40;;;14.70;1.00;;;;;;6245333;28;20331;-53
2022/03/21 13:10:51;;;;;;;11.10;9.43;;;14.70;1.00;;;;;;6256020;28;20325;-55
2022/03/21 13:13:55;;;;;;;10.97;10.13;;;14.60;1.00;;;;;;6251893;28;20652;-57
2022/03/21 13:17:02;;;;;;;10.67;9.40;;;14.70;1.00;;;;;;6254079;28;20306;-57
2022/03/21 13:20:06;;;;;;;11.13;10.03;;;14.80;1.00;;;;;;6257083;28;20497;-56
2022/03/21 13:23:10;;;;;;;9.97;9.13;;;14.80;1.00;;;;;;6257859;28;20260;-55
2022/03/21 13:26:19;;;;;;;12.47;10.63;;;14.80;1.00;;;;;;6254822;28;20230;-56
2022/03/21 13:29:22;;;;;;;16.37;10.70;;;14.90;1.00;;;;;;6254646;28;20625;-55
2022/03/21 13:32:26;;;;;;;10.63;9.53;;;14.90;1.00;;;;;;6250652;28;20313;-55
2022/03/21 13:35:29;;;;;;;11.70;9.93;;;15.00;1.00;;;;;;6244462;28;20734;-55
2022/03/21 13:38:35;;;;;;;11.47;9.93;;;14.90;1.00;;;;;;6255409;28;20495;-56
2022/03/21 13:41:54;;;;;;;10.23;9.30;;;14.60;1.00;;;;;;6260597;28;20238;-55
2022/03/21 13:45:02;;;;;;;11.43;10.03;;;14.50;1.00;;;;;;6264270;28;20320;-56
2022/03/21 13:48:06;;;;;;;10.73;9.83;;;14.70;1.00;;;;;;6256918;28;20222;-56
2022/03/21 13:51:18;;;;;;;10.57;9.67;;;14.70;1.00;;;;;;6255855;28;20234;-56
2022/03/21 13:54:20;;;;;;;10.00;9.20;;;14.60;1.00;;;;;;6251464;28;20345;-55
2022/03/21 13:57:23;;;;;;;18.43;10.53;;;14.60;1.00;;;;;;6259213;28;20233;-55
2022/03/21 14:00:28;;;;;;;11.33;10.30;;;14.60;1.00;;;;;;6255969;28;20278;-55
2022/03/21 14:03:34;;;;;;;12.03;9.67;;;14.60;1.00;;;;;;6257382;28;20230;-55
2022/03/21 14:06:55;;;;;;;11.20;9.90;;;14.60;1.00;;;;;;6258954;28;20422;-56
2022/03/21 14:09:58;;;;;;;10.87;9.80;;;14.70;1.00;;;;;;6258528;28;20711;-56
2022/03/21 14:13:01;;;;;;;11.13;10.03;;;14.80;1.00;;;;;;6253384;28;20234;-55
2022/03/21 14:16:04;;;;;;;10.73;9.93;;;14.80;1.00;;;;;;6255545;28;20257;-54
2022/03/21 14:19:16;;;;;;;12.20;9.77;;;14.80;1.00;;;;;;6245650;28;20235;-55
2022/03/21 14:22:19;;;;;;;11.00;9.90;;;14.90;1.00;;;;;;6254122;28;20258;-55
2022/03/21 14:28:43;;;;;;;12.03;9.53;;;14.90;1.00;;;;;;6256555;28;20323;-55
2022/03/21 14:31:48;;;;;;;13.10;10.07;;;14.90;1.00;;;;;;6250213;28;20741;-54
2022/03/21 14:34:52;;;;;;;10.43;9.33;;;14.70;1.00;;;;;;6253710;28;20253;-56
2022/03/21 14:37:55;;;;;;;8.77;8.17;;;14.70;1.00;;;;;;6254676;28;20735;-55
2022/03/21 14:40:58;;;;;;;13.47;8.80;;;14.70;1.00;;;;;;6254175;28;20317;-56
2022/03/21 14:44:00;;;;;;;9.83;8.30;;;14.70;1.00;;;;;;6264883;28;20363;-54
2022/03/21 14:47:03;;;;;;;9.30;8.40;;;14.80;1.00;;;;;;6252040;28;20234;-55
2022/03/21 14:50:10;;;;;;;10.43;9.57;;;14.90;1.00;;;;;;6254140;28;20963;-55
2022/03/21 14:53:12;;;;;;;9.57;8.37;;;15.00;1.00;;;;;;6257855;28;20324;-54
2022/03/21 14:56:15;;;;;;;10.67;8.60;;;15.10;1.00;;;;;;6259165;28;20340;-55
2022/03/21 14:59:18;;;;;;;9.73;8.93;;;15.00;1.00;;;;;;6256322;28;20311;-56
2022/03/21 15:02:21;;;;;;;9.73;8.90;;;14.80;1.00;;;;;;6254624;28;20520;-55
2022/03/21 15:05:25;;;;;;;9.20;8.57;;;14.80;1.00;;;;;;6258502;28;20237;-55
2022/03/21 15:08:28;;;;;;;9.97;8.97;;;15.00;1.00;;;;;;6250186;28;20570;-55
2022/03/21 15:11:31;;;;;;;9.70;8.87;;;14.90;1.00;;;;;;6258745;28;20255;-56
2022/03/21 15:14:34;;;;;;;10.30;9.33;;;14.90;1.00;;;;;;6257843;28;20380;-55
2022/03/21 15:17:38;;;;;;;9.63;8.73;;;14.70;1.00;;;;;;6255835;28;20286;-55
2022/03/21 15:20:42;;;;;;;10.60;9.57;;;14.80;1.00;;;;;;6257654;28;20245;-55
2022/03/21 15:23:46;;;;;;;11.07;9.70;;;14.70;1.00;;;;;;6257786;28;20304;-56
2022/03/21 15:26:51;;;;;;;9.97;9.07;;;14.50;1.00;;;;;;6256745;28;20230;-56
2022/03/21 15:29:54;;;;;;;12.50;9.60;;;14.40;1.00;;;;;;6261593;28;20344;-55
2022/03/21 15:32:57;;;;;;;12.90;9.93;;;14.30;1.00;;;;;;6255073;28;20244;-55
2022/03/21 15:42:49;;;;;;;11.07;9.97;;;13.90;1.00;;;;;;6239116;28;21796;-55
2022/03/21 15:45:53;;;;;;;11.60;9.23;;;13.90;1.00;;;;;;6258153;28;20275;-57
2022/03/21 15:48:56;;;;;;;10.43;9.43;;;13.80;1.00;;;;;;6259927;28;20375;-54
2022/03/21 15:52:00;;;;;;;10.20;9.23;;;13.60;1.00;;;;;;6256600;28;20242;-55
2022/03/21 15:55:04;;;;;;;14.47;9.90;;;13.60;1.00;;;;;;6257817;28;20341;-56
2022/03/21 15:58:06;;;;;;;10.23;9.50;;;13.50;1.00;;;;;;6259425;28;20296;-56
2022/03/21 16:01:12;;;;;;;11.10;9.93;;;13.50;1.00;;;;;;6251543;28;20561;-56
2022/03/21 16:04:16;;;;;;;10.43;9.43;;;13.40;1.00;;;;;;6243660;28;20261;-55
2022/03/21 16:07:20;;;;;;;10.07;9.07;;;13.40;1.00;;;;;;6262397;28;20226;-56
2022/03/21 16:10:23;;;;;;;11.83;9.40;;;13.30;1.00;;;;;;6255812;28;20710;-57
2022/03/21 16:13:26;;;;;;;10.97;9.60;;;13.20;1.00;;;;;;6255744;28;20226;-57
2022/03/21 16:16:29;;;;;;;10.57;9.60;;;13.20;1.00;;;;;;6260810;28;20233;-53
2022/03/21 16:19:32;;;;;;;11.73;9.80;;;13.10;1.00;;;;;;6259686;28;20234;-56
2022/03/21 16:22:36;;;;;;;10.83;9.77;;;13.10;1.00;;;;;;6253792;28;20749;-55
2022/03/21 16:25:41;;;;;;;13.20;10.20;;;13.00;1.00;;;;;;6256262;28;20416;-56
2022/03/21 16:28:43;;;;;;;10.60;9.60;;;13.00;1.00;;;;;;6251899;28;20304;-56
2022/03/21 16:31:46;;;;;;;10.50;9.70;;;12.90;1.00;;;;;;6265832;28;20710;-55
2022/03/21 16:34:51;;;;;;;10.87;9.57;;;12.80;1.00;;;;;;6258352;28;20238;-55
2022/03/21 16:37:55;;;;;;;11.10;10.00;;;12.80;1.00;;;;;;6256157;28;20242;-55
2022/03/21 16:40:59;;;;;;;10.57;9.57;;;12.70;1.00;;;;;;6245492;28;20290;-55
2022/03/21 16:44:02;;;;;;;10.97;9.63;;;12.70;1.00;;;;;;6260802;28;20322;-59
2022/03/21 16:47:06;;;;;;;11.80;9.73;;;12.50;1.00;;;;;;6248408;28;20319;-56
2022/03/21 16:50:11;;;;;;;10.93;10.00;;;12.50;1.00;;;;;;6259294;28;20274;-55
2022/03/21 16:53:16;;;;;;;10.47;9.43;;;12.40;1.00;;;;;;6255865;28;20235;-57